createdAt,value
2022-11-02T00:02:10.246Z,92.71609
2022-11-02T00:12:11.959Z,92.95939
2022-11-02T00:22:13.125Z,93.29101
2022-11-02T00:32:14.480Z,93.66955
2022-11-02T00:42:15.630Z,94.36075
2022-11-02T00:52:16.796Z,94.60148
2022-11-02T01:02:18.229Z,94.44684
2022-11-02T01:12:19.495Z,94.77173
2022-11-02T01:22:20.887Z,95.48616
2022-11-02T01:32:22.127Z,95.636
2022-11-02T01:42:23.255Z,95.26789
2022-11-02T01:52:24.372Z,94.31101
2022-11-02T02:02:25.687Z,92.88485
2022-11-02T02:12:26.917Z,92.51582
2022-11-02T02:22:28.057Z,95.52035
2022-11-02T02:32:29.186Z,96.8663
2022-11-02T02:42:30.522Z,98.06369
2022-11-02T02:52:31.645Z,97.79105
2022-11-02T03:02:32.968Z,97.02703
2022-11-02T03:12:34.197Z,97.62102
2022-11-02T03:22:35.341Z,97.25714
2022-11-02T03:32:36.469Z,96.28361
2022-11-02T03:42:37.610Z,95.53994
2022-11-02T03:52:38.718Z,94.69411
2022-11-02T04:02:39.887Z,94.81737
2022-11-02T04:12:41.302Z,95.1343
2022-11-02T04:22:42.498Z,95.42527
2022-11-02T04:32:43.635Z,95.59662
2022-11-02T04:42:44.767Z,95.90742
2022-11-02T04:52:45.889Z,96.12007
2022-11-02T05:02:47.219Z,96.30902
2022-11-02T05:12:48.389Z,96.19211
2022-11-02T05:22:49.515Z,96.097
2022-11-02T05:32:50.871Z,95.87792
2022-11-02T05:42:52.023Z,95.37464
2022-11-02T05:52:53.201Z,94.53448
2022-11-02T06:02:54.375Z,94.8086
2022-11-02T06:12:55.577Z,95.66788
2022-11-02T06:22:56.792Z,95.93735
2022-11-02T06:33:01.688Z,96.19367
2022-11-02T06:43:17.339Z,96.46031
2022-11-02T06:53:19.090Z,96.70563
2022-11-02T07:03:20.315Z,96.62178
2022-11-02T07:13:21.657Z,96.57599
2022-11-02T07:23:22.790Z,96.07104
2022-11-02T07:33:23.937Z,95.43065
2022-11-02T07:43:25.076Z,94.59667
2022-11-02T07:53:26.166Z,93.69
2022-11-02T08:03:27.397Z,92.13981
2022-11-02T08:13:32.863Z,91.20783
2022-11-02T08:23:34.240Z,90.58591
2022-11-02T08:33:35.376Z,88.47392
2022-11-02T08:43:36.545Z,88.18262
2022-11-02T08:53:37.669Z,87.4008
2022-11-02T09:03:38.797Z,85.57007
2022-11-02T09:13:40.003Z,86.56342
2022-11-02T09:23:41.447Z,87.0236
2022-11-02T09:33:42.598Z,87.15681
2022-11-02T09:43:43.738Z,85.49375
2022-11-02T09:53:44.889Z,83.72591
2022-11-02T10:03:46.037Z,85.42579
2022-11-02T10:13:50.079Z,86.47665
2022-11-02T10:23:53.825Z,85.82155
2022-11-02T10:33:57.129Z,85.36655
2022-11-02T10:44:00.002Z,86.0875
2022-11-02T10:54:01.464Z,85.67097
2022-11-02T11:04:03.183Z,85.48896
2022-11-02T11:24:36.238Z,82.88475
2022-11-02T11:34:37.502Z,82.03654
2022-11-02T11:44:38.617Z,82.18185
2022-11-02T11:54:39.777Z,82.81215
2022-11-02T12:04:41.214Z,83.80777
2022-11-02T12:14:42.390Z,83.80226
2022-11-02T12:24:43.542Z,84.07857
2022-11-02T12:34:52.889Z,84.86067
2022-11-02T12:44:54.540Z,85.34405
2022-11-02T12:54:55.777Z,85.07595
2022-11-02T13:04:56.918Z,84.40017
2022-11-02T13:14:58.047Z,82.55982
2022-11-02T13:24:59.208Z,81.48917
2022-11-02T13:35:00.544Z,81.74093
2022-11-02T13:45:01.985Z,81.99827
2022-11-02T13:55:03.752Z,82.3509
2022-11-02T14:05:05.525Z,81.90886
2022-11-02T14:15:07.303Z,82.21361
2022-11-02T14:25:08.871Z,82.5467
2022-11-02T14:35:10.321Z,82.85084
2022-11-02T14:45:11.899Z,82.79875
2022-11-02T14:55:13.303Z,82.10475
2022-11-02T15:05:14.610Z,81.45857
2022-11-02T15:15:15.774Z,81.55521
2022-11-02T15:25:16.890Z,78.9647
2022-11-02T15:35:18.015Z,76.96899
2022-11-02T15:45:41.843Z,77.20746
2022-11-02T15:55:48.970Z,78.16819
2022-11-02T16:05:50.107Z,77.84036
2022-11-02T16:15:51.491Z,77.24584
2022-11-02T16:25:52.640Z,77.11266
2022-11-02T16:35:53.879Z,76.81802
2022-11-02T16:45:55.048Z,77.98054
2022-11-02T16:55:56.196Z,78.39438
2022-11-02T17:05:57.340Z,77.89712
2022-11-02T17:15:58.489Z,77.53353
2022-11-02T17:25:59.645Z,77.18761
2022-11-02T17:36:01.652Z,78.38959
2022-11-02T17:46:03.448Z,79.07806
2022-11-02T17:56:05.292Z,81.62596
2022-11-02T18:06:07.021Z,82.93605
2022-11-02T18:16:08.781Z,78.35011
2022-11-02T18:26:10.344Z,90.90837
2022-11-02T18:36:11.854Z,93.63126
2022-11-02T18:46:12.984Z,94.80362
2022-11-02T18:56:14.247Z,95.18643
2022-11-02T19:06:15.419Z,95.62484
2022-11-02T19:16:16.595Z,95.87861
2022-11-02T19:26:17.793Z,95.48541
2022-11-02T19:36:18.954Z,94.68634
2022-11-02T19:46:20.104Z,94.19612
2022-11-02T19:56:21.538Z,93.8438
2022-11-02T20:06:22.841Z,93.4821
2022-11-02T20:16:24.021Z,93.35329
2022-11-02T20:26:25.158Z,93.95211
2022-11-02T20:36:26.293Z,93.25313
2022-11-02T20:46:39.081Z,92.73326
2022-11-02T20:56:42.175Z,92.52506
2022-11-02T21:06:43.326Z,93.25531
2022-11-02T21:16:44.503Z,92.88404
2022-11-02T21:26:45.678Z,91.48529
2022-11-02T21:36:46.873Z,90.22061
2022-11-02T21:46:48.077Z,91.02718
2022-11-02T21:56:49.226Z,91.37258
2022-11-02T22:06:50.539Z,90.63202
2022-11-02T22:16:51.723Z,90.13099
2022-11-02T22:26:52.991Z,88.96771
2022-11-02T22:36:54.121Z,87.75525
2022-11-02T22:46:55.294Z,87.82748
2022-11-02T22:56:56.427Z,88.70533
2022-11-02T23:06:57.571Z,88.40073
2022-11-02T23:16:58.736Z,87.38242
2022-11-02T23:26:59.956Z,86.81145
2022-11-02T23:37:01.512Z,87.34212
2022-11-02T23:47:03.250Z,87.933
2022-11-02T23:57:04.968Z,88.25128
